sensor_id;sensor_type;location;lat;lon;timestamp;P1;durP1;ratioP1;P2;durP2;ratioP2
7607;SDS011;3845;48.120;11.534;2023-05-10T00:01:54;1.20;;;1.00;;
7607;SDS011;3845;48.120;11.534;2023-05-10T00:04:19;1.10;;;1.00;;
7607;SDS011;3845;48.120;11.534;2023-05-10T00:06:45;2.07;;;0.93;;
7607;SDS011;3845;48.120;11.534;2023-05-10T00:09:10;1.60;;;0.90;;
7607;SDS011;3845;48.120;11.534;2023-05-10T00:11:35;1.20;;;1.10;;
7607;SDS011;3845;48.120;11.534;2023-05-10T00:14:01;1.10;;;1.00;;
7607;SDS011;3845;48.120;11.534;2023-05-10T00:16:26;1.30;;;1.00;;
7607;SDS011;3845;48.120;11.534;2023-05-10T00:18:51;1.10;;;1.00;;
7607;SDS011;3845;48.120;11.534;2023-05-10T00:21:17;1.10;;;1.00;;
7607;SDS011;3845;48.120;11.534;2023-05-10T00:23:42;1.23;;;1.03;;
7607;SDS011;3845;48.120;11.534;2023-05-10T00:26:07;1.00;;;0.90;;
7607;SDS011;3845;48.120;11.534;2023-05-10T00:28:33;1.37;;;1.10;;
7607;SDS011;3845;48.120;11.534;2023-05-10T00:30:58;0.90;;;0.87;;
7607;SDS011;3845;48.120;11.534;2023-05-10T00:33:23;1.50;;;0.80;;
7607;SDS011;3845;48.120;11.534;2023-05-10T00:35:48;0.90;;;0.90;;
7607;SDS011;3845;48.120;11.534;2023-05-10T00:38:14;0.90;;;0.90;;
7607;SDS011;3845;48.120;11.534;2023-05-10T00:40:39;0.93;;;0.87;;
7607;SDS011;3845;48.120;11.534;2023-05-10T00:43:05;1.20;;;0.90;;
7607;SDS011;3845;48.120;11.534;2023-05-10T00:45:31;0.87;;;0.87;;
7607;SDS011;3845;48.120;11.534;2023-05-10T00:47:57;1.00;;;0.87;;
7607;SDS011;3845;48.120;11.534;2023-05-10T00:50:24;0.80;;;0.80;;
7607;SDS011;3845;48.120;11.534;2023-05-10T00:52:50;0.80;;;0.80;;
7607;SDS011;3845;48.120;11.534;2023-05-10T00:55:16;0.70;;;0.70;;
7607;SDS011;3845;48.120;11.534;2023-05-10T00:57:41;0.80;;;0.80;;
7607;SDS011;3845;48.120;11.534;2023-05-10T01:00:07;0.80;;;0.80;;
7607;SDS011;3845;48.120;11.534;2023-05-10T01:02:33;0.80;;;0.80;;
7607;SDS011;3845;48.120;11.534;2023-05-10T01:04:59;0.80;;;0.80;;
7607;SDS011;3845;48.120;11.534;2023-05-10T01:07:25;0.83;;;0.77;;
7607;SDS011;3845;48.120;11.534;2023-05-10T01:09:50;0.80;;;0.80;;
7607;SDS011;3845;48.120;11.534;2023-05-10T01:12:15;1.27;;;0.80;;
7607;SDS011;3845;48.120;11.534;2023-05-10T01:14:41;2.37;;;0.80;;
7607;SDS011;3845;48.120;11.534;2023-05-10T01:17:06;0.73;;;0.73;;
7607;SDS011;3845;48.120;11.534;2023-05-10T01:19:33;0.87;;;0.77;;
7607;SDS011;3845;48.120;11.534;2023-05-10T01:33:30;0.80;;;0.60;;
7607;SDS011;3845;48.120;11.534;2023-05-10T01:37:10;0.77;;;0.77;;
7607;SDS011;3845;48.120;11.534;2023-05-10T01:39:20;1.43;;;0.67;;
7607;SDS011;3845;48.120;11.534;2023-05-10T01:47:14;0.70;;;0.70;;
7607;SDS011;3845;48.120;11.534;2023-05-10T01:49:46;0.70;;;0.70;;
7607;SDS011;3845;48.120;11.534;2023-05-10T01:52:15;0.73;;;0.70;;
7607;SDS011;3845;48.120;11.534;2023-05-10T01:54:49;0.70;;;0.70;;
7607;SDS011;3845;48.120;11.534;2023-05-10T01:57:18;0.87;;;0.77;;
7607;SDS011;3845;48.120;11.534;2023-05-10T01:59:45;0.70;;;0.60;;
7607;SDS011;3845;48.120;11.534;2023-05-10T02:02:13;0.67;;;0.67;;
7607;SDS011;3845;48.120;11.534;2023-05-10T02:04:40;0.70;;;0.67;;
7607;SDS011;3845;48.120;11.534;2023-05-10T02:07:06;0.70;;;0.70;;
7607;SDS011;3845;48.120;11.534;2023-05-10T02:09:32;0.77;;;0.70;;
7607;SDS011;3845;48.120;11.534;2023-05-10T02:11:59;0.70;;;0.70;;
7607;SDS011;3845;48.120;11.534;2023-05-10T02:14:25;0.93;;;0.70;;
7607;SDS011;3845;48.120;11.534;2023-05-10T02:16:51;0.80;;;0.70;;
7607;SDS011;3845;48.120;11.534;2023-05-10T02:19:18;0.70;;;0.70;;
7607;SDS011;3845;48.120;11.534;2023-05-10T02:21:45;0.70;;;0.60;;
7607;SDS011;3845;48.120;11.534;2023-05-10T02:24:10;0.70;;;0.70;;
7607;SDS011;3845;48.120;11.534;2023-05-10T02:26:36;1.23;;;0.83;;
7607;SDS011;3845;48.120;11.534;2023-05-10T02:29:04;1.37;;;1.10;;
7607;SDS011;3845;48.120;11.534;2023-05-10T02:31:30;2.03;;;0.90;;
7607;SDS011;3845;48.120;11.534;2023-05-10T02:33:57;1.20;;;1.00;;
7607;SDS011;3845;48.120;11.534;2023-05-10T02:36:23;1.10;;;0.93;;
7607;SDS011;3845;48.120;11.534;2023-05-10T02:38:48;1.43;;;0.90;;
7607;SDS011;3845;48.120;11.534;2023-05-10T02:41:14;1.27;;;0.80;;
7607;SDS011;3845;48.120;11.534;2023-05-10T02:43:40;0.80;;;0.80;;
7607;SDS011;3845;48.120;11.534;2023-05-10T02:46:06;0.80;;;0.80;;
7607;SDS011;3845;48.120;11.534;2023-05-10T02:48:32;0.70;;;0.70;;
7607;SDS011;3845;48.120;11.534;2023-05-10T02:51:00;0.87;;;0.83;;
7607;SDS011;3845;48.120;11.534;2023-05-10T02:53:31;1.20;;;0.70;;
7607;SDS011;3845;48.120;11.534;2023-05-10T02:55:58;0.80;;;0.80;;
7607;SDS011;3845;48.120;11.534;2023-05-10T02:58:25;0.70;;;0.70;;
7607;SDS011;3845;48.120;11.534;2023-05-10T03:00:51;0.80;;;0.80;;
7607;SDS011;3845;48.120;11.534;2023-05-10T03:03:16;1.73;;;0.80;;
7607;SDS011;3845;48.120;11.534;2023-05-10T03:05:42;0.93;;;0.80;;
7607;SDS011;3845;48.120;11.534;2023-05-10T03:08:07;0.80;;;0.80;;
7607;SDS011;3845;48.120;11.534;2023-05-10T03:10:32;0.83;;;0.80;;
7607;SDS011;3845;48.120;11.534;2023-05-10T03:18:09;1.13;;;1.03;;
7607;SDS011;3845;48.120;11.534;2023-05-10T03:25:52;1.00;;;0.90;;
7607;SDS011;3845;48.120;11.534;2023-05-10T03:28:17;0.80;;;0.80;;
7607;SDS011;3845;48.120;11.534;2023-05-10T03:30:43;0.80;;;0.70;;
7607;SDS011;3845;48.120;11.534;2023-05-10T03:33:09;1.17;;;0.77;;
7607;SDS011;3845;48.120;11.534;2023-05-10T03:35:35;0.67;;;0.67;;
7607;SDS011;3845;48.120;11.534;2023-05-10T03:38:01;0.60;;;0.60;;
7607;SDS011;3845;48.120;11.534;2023-05-10T03:40:27;0.93;;;0.80;;
7607;SDS011;3845;48.120;11.534;2023-05-10T03:42:54;0.80;;;0.70;;
7607;SDS011;3845;48.120;11.534;2023-05-10T03:45:20;1.33;;;0.70;;
7607;SDS011;3845;48.120;11.534;2023-05-10T03:47:45;1.67;;;0.87;;
7607;SDS011;3845;48.120;11.534;2023-05-10T03:50:10;0.63;;;0.63;;
7607;SDS011;3845;48.120;11.534;2023-05-10T03:52:35;0.60;;;0.60;;
7607;SDS011;3845;48.120;11.534;2023-05-10T03:55:01;0.73;;;0.70;;
7607;SDS011;3845;48.120;11.534;2023-05-10T03:57:28;0.63;;;0.60;;
7607;SDS011;3845;48.120;11.534;2023-05-10T03:59:53;0.73;;;0.73;;
7607;SDS011;3845;48.120;11.534;2023-05-10T04:02:19;0.70;;;0.70;;
7607;SDS011;3845;48.120;11.534;2023-05-10T04:04:44;0.90;;;0.70;;
7607;SDS011;3845;48.120;11.534;2023-05-10T04:07:10;0.83;;;0.83;;
7607;SDS011;3845;48.120;11.534;2023-05-10T04:09:35;0.87;;;0.77;;
7607;SDS011;3845;48.120;11.534;2023-05-10T04:12:00;2.00;;;0.60;;
7607;SDS011;3845;48.120;11.534;2023-05-10T04:14:27;0.70;;;0.70;;
7607;SDS011;3845;48.120;11.534;2023-05-10T04:16:52;2.23;;;0.63;;
7607;SDS011;3845;48.120;11.534;2023-05-10T04:19:18;1.80;;;0.70;;
7607;SDS011;3845;48.120;11.534;2023-05-10T04:21:43;0.60;;;0.60;;
7607;SDS011;3845;48.120;11.534;2023-05-10T04:24:08;0.60;;;0.60;;
7607;SDS011;3845;48.120;11.534;2023-05-10T04:26:33;0.70;;;0.70;;
7607;SDS011;3845;48.120;11.534;2023-05-10T04:28:59;0.50;;;0.50;;
7607;SDS011;3845;48.120;11.534;2023-05-10T04:31:24;2.07;;;1.10;;
7607;SDS011;3845;48.120;11.534;2023-05-10T04:33:49;1.87;;;0.90;;
7607;SDS011;3845;48.120;11.534;2023-05-10T04:36:15;1.00;;;0.90;;
7607;SDS011;3845;48.120;11.534;2023-05-10T04:38:40;3.30;;;2.80;;
7607;SDS011;3845;48.120;11.534;2023-05-10T04:41:09;3.03;;;2.50;;
7607;SDS011;3845;48.120;11.534;2023-05-10T04:43:35;2.40;;;1.80;;
7607;SDS011;3845;48.120;11.534;2023-05-10T04:46:01;2.83;;;1.33;;
7607;SDS011;3845;48.120;11.534;2023-05-10T04:48:26;1.00;;;0.90;;
7607;SDS011;3845;48.120;11.534;2023-05-10T04:50:52;2.30;;;2.00;;
7607;SDS011;3845;48.120;11.534;2023-05-10T04:53:17;3.77;;;2.50;;
7607;SDS011;3845;48.120;11.534;2023-05-10T04:55:42;1.70;;;1.40;;
7607;SDS011;3845;48.120;11.534;2023-05-10T04:58:08;1.20;;;1.10;;
7607;SDS011;3845;48.120;11.534;2023-05-10T05:00:33;0.80;;;0.80;;
7607;SDS011;3845;48.120;11.534;2023-05-10T05:02:58;2.83;;;0.90;;
7607;SDS011;3845;48.120;11.534;2023-05-10T05:05:24;1.60;;;1.00;;
7607;SDS011;3845;48.120;11.534;2023-05-10T05:07:50;1.70;;;0.90;;
7607;SDS011;3845;48.120;11.534;2023-05-10T05:10:15;1.17;;;0.80;;
7607;SDS011;3845;48.120;11.534;2023-05-10T05:12:41;0.70;;;0.70;;
7607;SDS011;3845;48.120;11.534;2023-05-10T05:15:06;0.80;;;0.70;;
7607;SDS011;3845;48.120;11.534;2023-05-10T05:17:34;0.73;;;0.70;;
7607;SDS011;3845;48.120;11.534;2023-05-10T05:19:59;0.97;;;0.80;;
7607;SDS011;3845;48.120;11.534;2023-05-10T05:22:24;2.23;;;0.90;;
7607;SDS011;3845;48.120;11.534;2023-05-10T05:24:53;1.37;;;0.80;;
7607;SDS011;3845;48.120;11.534;2023-05-10T05:27:19;1.00;;;0.90;;
7607;SDS011;3845;48.120;11.534;2023-05-10T05:29:47;2.70;;;2.10;;
7607;SDS011;3845;48.120;11.534;2023-05-10T05:32:12;2.70;;;2.20;;
7607;SDS011;3845;48.120;11.534;2023-05-10T05:34:37;2.27;;;1.27;;
7607;SDS011;3845;48.120;11.534;2023-05-10T05:37:03;2.80;;;2.30;;
7607;SDS011;3845;48.120;11.534;2023-05-10T05:39:28;2.17;;;1.60;;
7607;SDS011;3845;48.120;11.534;2023-05-10T05:41:53;2.00;;;1.50;;
7607;SDS011;3845;48.120;11.534;2023-05-10T05:44:19;3.80;;;3.00;;
7607;SDS011;3845;48.120;11.534;2023-05-10T05:46:44;2.20;;;1.80;;
7607;SDS011;3845;48.120;11.534;2023-05-10T05:49:09;3.87;;;2.40;;
7607;SDS011;3845;48.120;11.534;2023-05-10T05:51:35;4.90;;;2.53;;
7607;SDS011;3845;48.120;11.534;2023-05-10T05:54:00;3.97;;;2.53;;
7607;SDS011;3845;48.120;11.534;2023-05-10T05:56:25;2.50;;;2.03;;
7607;SDS011;3845;48.120;11.534;2023-05-10T05:58:51;2.03;;;1.83;;
7607;SDS011;3845;48.120;11.534;2023-05-10T06:01:16;5.27;;;3.60;;
7607;SDS011;3845;48.120;11.534;2023-05-10T06:03:41;2.00;;;1.50;;
7607;SDS011;3845;48.120;11.534;2023-05-10T06:06:07;1.20;;;1.10;;
7607;SDS011;3845;48.120;11.534;2023-05-10T06:08:32;1.60;;;1.10;;
7607;SDS011;3845;48.120;11.534;2023-05-10T06:10:58;1.30;;;1.10;;
7607;SDS011;3845;48.120;11.534;2023-05-10T06:13:24;1.03;;;0.97;;
7607;SDS011;3845;48.120;11.534;2023-05-10T06:15:49;1.40;;;1.27;;
7607;SDS011;3845;48.120;11.534;2023-05-10T06:18:15;2.07;;;1.70;;
7607;SDS011;3845;48.120;11.534;2023-05-10T06:20:40;4.30;;;2.87;;
7607;SDS011;3845;48.120;11.534;2023-05-10T06:23:06;3.70;;;2.70;;
7607;SDS011;3845;48.120;11.534;2023-05-10T06:25:32;4.17;;;2.37;;
7607;SDS011;3845;48.120;11.534;2023-05-10T06:27:57;3.57;;;2.50;;
7607;SDS011;3845;48.120;11.534;2023-05-10T06:30:23;2.63;;;2.10;;
7607;SDS011;3845;48.120;11.534;2023-05-10T06:32:52;2.50;;;1.80;;
7607;SDS011;3845;48.120;11.534;2023-05-10T06:35:17;4.30;;;3.30;;
7607;SDS011;3845;48.120;11.534;2023-05-10T06:37:43;3.47;;;2.67;;
7607;SDS011;3845;48.120;11.534;2023-05-10T06:40:08;2.17;;;1.50;;
7607;SDS011;3845;48.120;11.534;2023-05-10T06:42:34;1.87;;;1.37;;
7607;SDS011;3845;48.120;11.534;2023-05-10T06:44:59;1.30;;;1.00;;
7607;SDS011;3845;48.120;11.534;2023-05-10T06:47:24;1.47;;;1.00;;
7607;SDS011;3845;48.120;11.534;2023-05-10T06:49:50;1.00;;;0.90;;
7607;SDS011;3845;48.120;11.534;2023-05-10T06:52:15;1.93;;;0.97;;
7607;SDS011;3845;48.120;11.534;2023-05-10T06:54:40;1.10;;;1.00;;
7607;SDS011;3845;48.120;11.534;2023-05-10T06:57:05;1.40;;;0.90;;
7607;SDS011;3845;48.120;11.534;2023-05-10T06:59:31;3.27;;;1.20;;
7607;SDS011;3845;48.120;11.534;2023-05-10T07:01:56;1.77;;;1.30;;
7607;SDS011;3845;48.120;11.534;2023-05-10T07:04:22;2.10;;;1.40;;
7607;SDS011;3845;48.120;11.534;2023-05-10T07:06:47;1.83;;;1.20;;
7607;SDS011;3845;48.120;11.534;2023-05-10T07:09:14;2.23;;;1.20;;
7607;SDS011;3845;48.120;11.534;2023-05-10T07:11:39;2.40;;;1.20;;
7607;SDS011;3845;48.120;11.534;2023-05-10T07:14:05;1.17;;;1.00;;
7607;SDS011;3845;48.120;11.534;2023-05-10T07:16:30;2.40;;;1.20;;
7607;SDS011;3845;48.120;11.534;2023-05-10T07:18:55;2.40;;;1.37;;
7607;SDS011;3845;48.120;11.534;2023-05-10T07:21:20;1.60;;;1.40;;
7607;SDS011;3845;48.120;11.534;2023-05-10T07:23:48;4.57;;;3.47;;
7607;SDS011;3845;48.120;11.534;2023-05-10T07:26:14;4.27;;;2.70;;
7607;SDS011;3845;48.120;11.534;2023-05-10T07:28:39;1.70;;;1.60;;
7607;SDS011;3845;48.120;11.534;2023-05-10T07:31:05;1.70;;;1.50;;
7607;SDS011;3845;48.120;11.534;2023-05-10T07:33:30;2.37;;;1.30;;
7607;SDS011;3845;48.120;11.534;2023-05-10T07:35:56;5.53;;;3.00;;
7607;SDS011;3845;48.120;11.534;2023-05-10T07:38:21;3.17;;;2.50;;
7607;SDS011;3845;48.120;11.534;2023-05-10T07:40:46;3.23;;;1.50;;
7607;SDS011;3845;48.120;11.534;2023-05-10T07:43:11;1.97;;;1.47;;
7607;SDS011;3845;48.120;11.534;2023-05-10T07:45:37;1.93;;;1.47;;
7607;SDS011;3845;48.120;11.534;2023-05-10T07:48:02;2.10;;;1.53;;
7607;SDS011;3845;48.120;11.534;2023-05-10T07:50:27;1.40;;;1.30;;
7607;SDS011;3845;48.120;11.534;2023-05-10T07:52:53;1.50;;;1.30;;
7607;SDS011;3845;48.120;11.534;2023-05-10T07:55:18;2.40;;;2.00;;
7607;SDS011;3845;48.120;11.534;2023-05-10T07:57:44;2.43;;;2.10;;
7607;SDS011;3845;48.120;11.534;2023-05-10T08:00:12;1.50;;;1.40;;
7607;SDS011;3845;48.120;11.534;2023-05-10T08:02:38;1.90;;;1.40;;
7607;SDS011;3845;48.120;11.534;2023-05-10T08:05:03;3.47;;;1.37;;
7607;SDS011;3845;48.120;11.534;2023-05-10T08:07:30;2.30;;;1.50;;
7607;SDS011;3845;48.120;11.534;2023-05-10T08:09:55;2.00;;;1.80;;
7607;SDS011;3845;48.120;11.534;2023-05-10T08:12:20;2.47;;;1.77;;
7607;SDS011;3845;48.120;11.534;2023-05-10T08:14:46;1.47;;;1.30;;
7607;SDS011;3845;48.120;11.534;2023-05-10T08:17:11;1.43;;;1.10;;
7607;SDS011;3845;48.120;11.534;2023-05-10T08:19:37;2.40;;;1.63;;
7607;SDS011;3845;48.120;11.534;2023-05-10T08:22:02;1.70;;;1.40;;
7607;SDS011;3845;48.120;11.534;2023-05-10T08:24:27;3.23;;;1.40;;
7607;SDS011;3845;48.120;11.534;2023-05-10T08:26:53;1.60;;;1.27;;
7607;SDS011;3845;48.120;11.534;2023-05-10T08:29:18;1.57;;;1.10;;
7607;SDS011;3845;48.120;11.534;2023-05-10T08:31:43;2.90;;;1.30;;
7607;SDS011;3845;48.120;11.534;2023-05-10T08:34:08;2.60;;;1.17;;
7607;SDS011;3845;48.120;11.534;2023-05-10T08:36:34;2.73;;;1.23;;
7607;SDS011;3845;48.120;11.534;2023-05-10T08:38:59;1.37;;;1.20;;
7607;SDS011;3845;48.120;11.534;2023-05-10T08:41:24;1.40;;;1.23;;
7607;SDS011;3845;48.120;11.534;2023-05-10T08:43:51;2.63;;;1.40;;
7607;SDS011;3845;48.120;11.534;2023-05-10T08:46:20;1.73;;;1.40;;
7607;SDS011;3845;48.120;11.534;2023-05-10T08:48:47;1.67;;;1.40;;
7607;SDS011;3845;48.120;11.534;2023-05-10T08:51:15;2.07;;;1.43;;
7607;SDS011;3845;48.120;11.534;2023-05-10T08:53:43;1.63;;;1.10;;
7607;SDS011;3845;48.120;11.534;2023-05-10T08:56:09;1.30;;;1.10;;
7607;SDS011;3845;48.120;11.534;2023-05-10T08:58:34;1.40;;;1.20;;
7607;SDS011;3845;48.120;11.534;2023-05-10T09:01:00;2.93;;;1.33;;
7607;SDS011;3845;48.120;11.534;2023-05-10T09:03:25;1.53;;;1.10;;
7607;SDS011;3845;48.120;11.534;2023-05-10T09:05:51;1.80;;;1.00;;
7607;SDS011;3845;48.120;11.534;2023-05-10T09:08:17;3.00;;;1.40;;
7607;SDS011;3845;48.120;11.534;2023-05-10T09:10:43;2.70;;;1.30;;
7607;SDS011;3845;48.120;11.534;2023-05-10T09:13:10;1.60;;;1.20;;
7607;SDS011;3845;48.120;11.534;2023-05-10T09:15:35;1.33;;;1.20;;
7607;SDS011;3845;48.120;11.534;2023-05-10T09:18:00;1.57;;;1.20;;
7607;SDS011;3845;48.120;11.534;2023-05-10T09:20:27;2.60;;;1.67;;
7607;SDS011;3845;48.120;11.534;2023-05-10T09:22:52;4.70;;;4.00;;
7607;SDS011;3845;48.120;11.534;2023-05-10T09:25:18;3.10;;;2.73;;
7607;SDS011;3845;48.120;11.534;2023-05-10T09:27:44;2.80;;;2.50;;
7607;SDS011;3845;48.120;11.534;2023-05-10T09:30:30;4.17;;;1.80;;
7607;SDS011;3845;48.120;11.534;2023-05-10T09:32:56;1.53;;;1.40;;
7607;SDS011;3845;48.120;11.534;2023-05-10T09:35:26;6.87;;;1.90;;
7607;SDS011;3845;48.120;11.534;2023-05-10T09:37:53;6.20;;;4.57;;
7607;SDS011;3845;48.120;11.534;2023-05-10T09:40:20;3.63;;;1.80;;
7607;SDS011;3845;48.120;11.534;2023-05-10T09:43:20;2.83;;;1.17;;
7607;SDS011;3845;48.120;11.534;2023-05-10T09:45:39;3.97;;;1.30;;
7607;SDS011;3845;48.120;11.534;2023-05-10T09:48:06;1.73;;;1.20;;
7607;SDS011;3845;48.120;11.534;2023-05-10T09:50:31;1.40;;;1.30;;
7607;SDS011;3845;48.120;11.534;2023-05-10T09:53:00;1.80;;;1.10;;
7607;SDS011;3845;48.120;11.534;2023-05-10T09:55:44;5.53;;;1.07;;
7607;SDS011;3845;48.120;11.534;2023-05-10T09:58:11;2.30;;;1.20;;
7607;SDS011;3845;48.120;11.534;2023-05-10T10:00:40;3.20;;;1.20;;
7607;SDS011;3845;48.120;11.534;2023-05-10T10:03:13;1.30;;;1.10;;
7607;SDS011;3845;48.120;11.534;2023-05-10T10:05:40;1.30;;;1.00;;
7607;SDS011;3845;48.120;11.534;2023-05-10T10:08:07;1.70;;;1.00;;
7607;SDS011;3845;48.120;11.534;2023-05-10T10:10:33;1.13;;;0.90;;
7607;SDS011;3845;48.120;11.534;2023-05-10T10:12:58;1.07;;;0.97;;
7607;SDS011;3845;48.120;11.534;2023-05-10T10:15:24;0.93;;;0.83;;
7607;SDS011;3845;48.120;11.534;2023-05-10T10:17:50;2.30;;;1.57;;
7607;SDS011;3845;48.120;11.534;2023-05-10T10:20:17;2.27;;;1.60;;
7607;SDS011;3845;48.120;11.534;2023-05-10T10:22:43;2.00;;;1.20;;
7607;SDS011;3845;48.120;11.534;2023-05-10T10:25:10;1.20;;;1.00;;
7607;SDS011;3845;48.120;11.534;2023-05-10T10:35:59;1.00;;;0.90;;
7607;SDS011;3845;48.120;11.534;2023-05-10T10:38:25;1.30;;;1.00;;
7607;SDS011;3845;48.120;11.534;2023-05-10T10:41:11;1.17;;;1.03;;
7607;SDS011;3845;48.120;11.534;2023-05-10T10:44:22;1.20;;;1.10;;
7607;SDS011;3845;48.120;11.534;2023-05-10T10:46:58;1.87;;;1.00;;
7607;SDS011;3845;48.120;11.534;2023-05-10T10:49:50;2.10;;;0.90;;
7607;SDS011;3845;48.120;11.534;2023-05-10T10:52:21;2.90;;;1.30;;
7607;SDS011;3845;48.120;11.534;2023-05-10T10:55:08;2.53;;;1.63;;
7607;SDS011;3845;48.120;11.534;2023-05-10T11:02:57;3.67;;;1.70;;
7607;SDS011;3845;48.120;11.534;2023-05-10T11:07:58;1.70;;;1.23;;
7607;SDS011;3845;48.120;11.534;2023-05-10T11:10:25;2.73;;;1.40;;
7607;SDS011;3845;48.120;11.534;2023-05-10T11:15:18;2.17;;;1.10;;
7607;SDS011;3845;48.120;11.534;2023-05-10T11:17:44;1.30;;;1.10;;
7607;SDS011;3845;48.120;11.534;2023-05-10T11:20:13;1.13;;;1.03;;
7607;SDS011;3845;48.120;11.534;2023-05-10T11:22:49;1.20;;;1.10;;
7607;SDS011;3845;48.120;11.534;2023-05-10T11:25:18;1.47;;;1.20;;
7607;SDS011;3845;48.120;11.534;2023-05-10T11:27:44;1.60;;;1.30;;
7607;SDS011;3845;48.120;11.534;2023-05-10T11:30:10;1.97;;;1.37;;
7607;SDS011;3845;48.120;11.534;2023-05-10T11:32:40;2.43;;;1.40;;
7607;SDS011;3845;48.120;11.534;2023-05-10T11:35:09;1.80;;;1.30;;
7607;SDS011;3845;48.120;11.534;2023-05-10T11:37:35;2.67;;;1.70;;
7607;SDS011;3845;48.120;11.534;2023-05-10T11:40:00;3.40;;;1.40;;
7607;SDS011;3845;48.120;11.534;2023-05-10T11:42:29;3.13;;;1.90;;
7607;SDS011;3845;48.120;11.534;2023-05-10T11:44:55;2.60;;;1.60;;
7607;SDS011;3845;48.120;11.534;2023-05-10T11:47:21;2.90;;;2.60;;
7607;SDS011;3845;48.120;11.534;2023-05-10T11:49:47;4.13;;;2.50;;
7607;SDS011;3845;48.120;11.534;2023-05-10T11:52:12;9.50;;;3.23;;
7607;SDS011;3845;48.120;11.534;2023-05-10T11:54:44;2.33;;;1.70;;
7607;SDS011;3845;48.120;11.534;2023-05-10T11:57:11;6.93;;;1.50;;
7607;SDS011;3845;48.120;11.534;2023-05-10T11:59:36;5.10;;;3.40;;
7607;SDS011;3845;48.120;11.534;2023-05-10T12:02:01;4.67;;;2.47;;
7607;SDS011;3845;48.120;11.534;2023-05-10T12:04:28;6.73;;;3.57;;
7607;SDS011;3845;48.120;11.534;2023-05-10T12:06:54;4.83;;;3.43;;
7607;SDS011;3845;48.120;11.534;2023-05-10T12:09:19;2.53;;;1.90;;
7607;SDS011;3845;48.120;11.534;2023-05-10T12:11:45;2.17;;;1.50;;
7607;SDS011;3845;48.120;11.534;2023-05-10T12:14:10;2.33;;;1.30;;
7607;SDS011;3845;48.120;11.534;2023-05-10T12:16:36;1.80;;;1.30;;
7607;SDS011;3845;48.120;11.534;2023-05-10T12:19:01;1.93;;;1.20;;
7607;SDS011;3845;48.120;11.534;2023-05-10T12:21:30;3.03;;;1.67;;
7607;SDS011;3845;48.120;11.534;2023-05-10T12:24:01;2.37;;;1.60;;
7607;SDS011;3845;48.120;11.534;2023-05-10T12:26:28;1.40;;;1.30;;
7607;SDS011;3845;48.120;11.534;2023-05-10T12:28:54;1.70;;;1.20;;
7607;SDS011;3845;48.120;11.534;2023-05-10T12:31:19;4.70;;;1.50;;
7607;SDS011;3845;48.120;11.534;2023-05-10T12:33:45;1.80;;;1.37;;
7607;SDS011;3845;48.120;11.534;2023-05-10T12:36:12;2.23;;;1.33;;
7607;SDS011;3845;48.120;11.534;2023-05-10T12:38:41;2.30;;;1.60;;
7607;SDS011;3845;48.120;11.534;2023-05-10T12:41:08;2.67;;;1.90;;
7607;SDS011;3845;48.120;11.534;2023-05-10T12:43:35;1.83;;;1.50;;
7607;SDS011;3845;48.120;11.534;2023-05-10T12:46:07;2.23;;;1.60;;
7607;SDS011;3845;48.120;11.534;2023-05-10T12:48:33;1.70;;;1.40;;
7607;SDS011;3845;48.120;11.534;2023-05-10T12:51:00;2.43;;;1.53;;
7607;SDS011;3845;48.120;11.534;2023-05-10T12:53:26;1.77;;;1.20;;
7607;SDS011;3845;48.120;11.534;2023-05-10T12:55:51;1.33;;;1.10;;
7607;SDS011;3845;48.120;11.534;2023-05-10T12:58:17;1.80;;;1.37;;
7607;SDS011;3845;48.120;11.534;2023-05-10T13:00:42;1.50;;;1.20;;
7607;SDS011;3845;48.120;11.534;2023-05-10T13:03:08;1.73;;;1.40;;
7607;SDS011;3845;48.120;11.534;2023-05-10T13:05:34;1.77;;;1.30;;
7607;SDS011;3845;48.120;11.534;2023-05-10T13:07:59;3.00;;;1.30;;
7607;SDS011;3845;48.120;11.534;2023-05-10T13:10:24;1.80;;;1.10;;
7607;SDS011;3845;48.120;11.534;2023-05-10T13:12:50;1.43;;;1.20;;
7607;SDS011;3845;48.120;11.534;2023-05-10T13:15:15;2.07;;;1.27;;
7607;SDS011;3845;48.120;11.534;2023-05-10T13:17:41;1.77;;;1.20;;
7607;SDS011;3845;48.120;11.534;2023-05-10T13:20:07;1.63;;;1.30;;
7607;SDS011;3845;48.120;11.534;2023-05-10T13:22:34;2.40;;;1.30;;
7607;SDS011;3845;48.120;11.534;2023-05-10T13:24:59;1.50;;;1.20;;
7607;SDS011;3845;48.120;11.534;2023-05-10T13:27:25;1.67;;;1.20;;
7607;SDS011;3845;48.120;11.534;2023-05-10T13:29:50;1.83;;;1.37;;
7607;SDS011;3845;48.120;11.534;2023-05-10T13:32:15;2.07;;;1.20;;
7607;SDS011;3845;48.120;11.534;2023-05-10T13:34:41;3.40;;;1.40;;
7607;SDS011;3845;48.120;11.534;2023-05-10T13:37:06;2.60;;;1.37;;
7607;SDS011;3845;48.120;11.534;2023-05-10T13:39:34;2.53;;;1.27;;
7607;SDS011;3845;48.120;11.534;2023-05-10T13:42:02;1.30;;;1.10;;
7607;SDS011;3845;48.120;11.534;2023-05-10T13:44:27;1.10;;;1.00;;
7607;SDS011;3845;48.120;11.534;2023-05-10T13:46:53;1.30;;;1.10;;
7607;SDS011;3845;48.120;11.534;2023-05-10T13:49:18;2.43;;;1.27;;
7607;SDS011;3845;48.120;11.534;2023-05-10T13:51:43;1.87;;;1.40;;
7607;SDS011;3845;48.120;11.534;2023-05-10T13:54:09;2.23;;;1.60;;
7607;SDS011;3845;48.120;11.534;2023-05-10T13:56:34;2.10;;;1.10;;
7607;SDS011;3845;48.120;11.534;2023-05-10T13:58:59;1.77;;;1.20;;
7607;SDS011;3845;48.120;11.534;2023-05-10T14:01:25;2.13;;;1.33;;
7607;SDS011;3845;48.120;11.534;2023-05-10T14:03:50;1.67;;;1.10;;
7607;SDS011;3845;48.120;11.534;2023-05-10T14:06:16;1.87;;;1.00;;
7607;SDS011;3845;48.120;11.534;2023-05-10T14:08:41;1.40;;;1.00;;
7607;SDS011;3845;48.120;11.534;2023-05-10T14:11:07;1.10;;;1.00;;
7607;SDS011;3845;48.120;11.534;2023-05-10T14:13:32;1.57;;;1.07;;
7607;SDS011;3845;48.120;11.534;2023-05-10T14:15:57;1.20;;;1.10;;
7607;SDS011;3845;48.120;11.534;2023-05-10T14:18:25;1.20;;;1.00;;
7607;SDS011;3845;48.120;11.534;2023-05-10T14:20:51;2.80;;;1.20;;
7607;SDS011;3845;48.120;11.534;2023-05-10T14:23:16;1.30;;;0.93;;
7607;SDS011;3845;48.120;11.534;2023-05-10T14:25:41;1.63;;;1.00;;
7607;SDS011;3845;48.120;11.534;2023-05-10T14:28:06;1.20;;;1.00;;
7607;SDS011;3845;48.120;11.534;2023-05-10T14:30:32;1.30;;;1.10;;
7607;SDS011;3845;48.120;11.534;2023-05-10T14:32:59;1.67;;;1.10;;
7607;SDS011;3845;48.120;11.534;2023-05-10T14:35:26;1.20;;;1.10;;
7607;SDS011;3845;48.120;11.534;2023-05-10T14:37:52;1.17;;;1.07;;
7607;SDS011;3845;48.120;11.534;2023-05-10T14:40:17;1.33;;;1.10;;
7607;SDS011;3845;48.120;11.534;2023-05-10T14:42:42;2.33;;;1.53;;
7607;SDS011;3845;48.120;11.534;2023-05-10T14:45:08;2.37;;;1.90;;
7607;SDS011;3845;48.120;11.534;2023-05-10T14:47:34;1.30;;;1.20;;
7607;SDS011;3845;48.120;11.534;2023-05-10T14:50:00;1.47;;;1.30;;
7607;SDS011;3845;48.120;11.534;2023-05-10T14:52:25;1.37;;;1.20;;
7607;SDS011;3845;48.120;11.534;2023-05-10T14:54:50;2.40;;;1.70;;
7607;SDS011;3845;48.120;11.534;2023-05-10T14:57:16;2.03;;;1.70;;
7607;SDS011;3845;48.120;11.534;2023-05-10T14:59:41;2.40;;;1.60;;
7607;SDS011;3845;48.120;11.534;2023-05-10T15:02:07;4.53;;;1.90;;
7607;SDS011;3845;48.120;11.534;2023-05-10T15:04:33;4.27;;;2.07;;
7607;SDS011;3845;48.120;11.534;2023-05-10T15:06:58;3.20;;;2.30;;
7607;SDS011;3845;48.120;11.534;2023-05-10T15:09:24;2.63;;;1.77;;
7607;SDS011;3845;48.120;11.534;2023-05-10T15:11:49;3.20;;;1.73;;
7607;SDS011;3845;48.120;11.534;2023-05-10T15:14:15;1.90;;;1.30;;
7607;SDS011;3845;48.120;11.534;2023-05-10T15:16:40;1.50;;;1.40;;
7607;SDS011;3845;48.120;11.534;2023-05-10T15:19:05;1.43;;;1.33;;
7607;SDS011;3845;48.120;11.534;2023-05-10T15:21:31;1.53;;;1.20;;
7607;SDS011;3845;48.120;11.534;2023-05-10T15:24:02;2.23;;;1.30;;
7607;SDS011;3845;48.120;11.534;2023-05-10T15:26:27;2.50;;;1.47;;
7607;SDS011;3845;48.120;11.534;2023-05-10T15:28:53;4.70;;;1.40;;
7607;SDS011;3845;48.120;11.534;2023-05-10T15:31:19;1.63;;;1.40;;
7607;SDS011;3845;48.120;11.534;2023-05-10T15:33:44;3.97;;;1.97;;
7607;SDS011;3845;48.120;11.534;2023-05-10T15:36:09;2.10;;;1.67;;
7607;SDS011;3845;48.120;11.534;2023-05-10T15:38:35;2.00;;;1.70;;
7607;SDS011;3845;48.120;11.534;2023-05-10T15:41:01;2.30;;;1.40;;
7607;SDS011;3845;48.120;11.534;2023-05-10T15:43:26;3.63;;;1.40;;